Terminal Aerodrome Forecast
Issued by NWS

Home | Current Version | Previous Version | Text Only | Print | Product List | Glossary On
Versions: 1 2 3 4 5 6 7 8 9 10 11 12 13 14 15
000
FTUS43 KGRR 260530
TAFJXN
TAF
KJXN 260530Z 2606/2706 26008KT P6SM SCT080
     FM260900 25007KT P6SM SCT050
     FM261300 27012KT P6SM BKN050
     FM261700 27014G25KT P6SM VCSH BKN050
     FM270000 29010KT P6SM BKN050=

USA.gov is the U.S. government's official web portal to all federal, state and local government web resources and services.